PWSweather.com
Personal Weather Stations
Station Observations
ASHURSTBR1
New Forest, TottonGB SO40 7EA

New ForestTottonGB SO40 7EA

Lat: 50.9097024, Lon: -1.5111684999999397

Elevation: 27

Station Type: Davis VP2 Plus

Latest ConditionsUpdated 6:45:00 PM GMT Sunday, Jan 26, 2020
Currently Today's Max Today's Min Today's Average
Temperature 48.7°F9.3°C 49.9°F9.9°C 46.1°F7.8°C 48.1°F8.9°C
Dew Point 46.8°F8.2°C 47.6°F8.7°C 43.3°F6.3°C 45.8°F7.7°C
Winds 1.0 mph SW1.6 kmh SW 9.0 mph -14.5 kmh - - 4.2 mph 6.8 kmh
Wind Gusts 5.0 mph8.0 kmh 21.0 mph33.8 kmh - -
Humidity 93% 93% 89% 91%
Pressure 29.69 in1005.4 mb 29.91 in1012.9 mb 29.67 in1004.7 mb -
Precipitation - 0.24 in6.1 mm - -
Hour Temp Dew Point Humidity Winds Wind Gusts Pressure Precip Precip Rate Daily Precip Total
06:45 PM 48.7°F9.3°C 46.8°F8.2°C 93% 1.0 mph SW1.6 kmh SW 5.0 mph8.0 kmh 29.69 in1005.4 mb 0.00 in0.0 mm 0.00 in0.0 mm 0.24 in6.1 mm
06:30 PM 48.8°F9.3°C 46.9°F8.3°C 93% 2.0 mph SW3.2 kmh SW 6.0 mph9.7 kmh 29.69 in1005.4 mb 0.00 in0.0 mm 0.00 in0.0 mm 0.24 in6.1 mm
06:15 PM 48.9°F9.4°C 47.0°F8.3°C 93% 2.0 mph SW3.2 kmh SW 7.0 mph11.3 kmh 29.69 in1005.4 mb 0.00 in0.0 mm 0.00 in0.0 mm 0.24 in6.1 mm
06:00 PM 49.1°F9.5°C 47.2°F8.4°C 93% 3.0 mph SW4.8 kmh SW 6.0 mph9.7 kmh 29.69 in1005.4 mb 0.00 in0.0 mm 0.00 in0.0 mm 0.24 in6.1 mm
05:45 PM 49.2°F9.6°C 47.3°F8.5°C 93% 4.0 mph SW6.4 kmh SW 9.0 mph14.5 kmh 29.68 in1005.1 mb 0.01 in0.3 mm 0.00 in0.0 mm 0.24 in6.1 mm
05:30 PM 49.4°F9.7°C 47.5°F8.6°C 93% 5.0 mph SSW8.0 kmh SSW 13.0 mph20.9 kmh 29.68 in1005.1 mb 0.01 in0.3 mm 0.00 in0.0 mm 0.24 in6.1 mm
05:15 PM 49.4°F9.7°C 47.5°F8.6°C 93% 6.0 mph SW9.7 kmh SW 14.0 mph22.5 kmh 29.68 in1005.1 mb 0.02 in0.5 mm 0.00 in0.0 mm 0.24 in6.1 mm
05:00 PM 49.5°F9.7°C 47.6°F8.7°C 93% 7.0 mph SSW11.3 kmh SSW 14.0 mph22.5 kmh 29.68 in1005.1 mb 0.03 in0.8 mm 0.00 in0.0 mm 0.24 in6.1 mm
04:45 PM 49.4°F9.7°C 47.5°F8.6°C 93% 7.0 mph SSW11.3 kmh SSW 18.0 mph29.0 kmh 29.67 in1004.7 mb 0.04 in1.0 mm 0.00 in0.0 mm 0.24 in6.1 mm
04:30 PM 49.4°F9.7°C 47.5°F8.6°C 93% 8.0 mph SSW12.9 kmh SSW 18.0 mph29.0 kmh 29.68 in1005.1 mb 0.07 in1.8 mm 0.00 in0.0 mm 0.24 in6.1 mm
04:15 PM 49.3°F9.6°C 47.4°F8.6°C 93% 7.0 mph SSW11.3 kmh SSW 15.0 mph24.1 kmh 29.68 in1005.1 mb 0.08 in2.0 mm 0.00 in0.0 mm 0.23 in5.8 mm
04:00 PM 49.2°F9.6°C 47.3°F8.5°C 93% 9.0 mph S14.5 kmh S 21.0 mph33.8 kmh 29.68 in1005.1 mb 0.08 in2.0 mm 0.00 in0.0 mm 0.21 in5.3 mm
03:45 PM 49.1°F9.5°C 47.2°F8.4°C 93% 9.0 mph S14.5 kmh S 21.0 mph33.8 kmh 29.68 in1005.1 mb 0.09 in2.3 mm 0.04 in1.0 mm 0.20 in5.1 mm
03:30 PM 49.0°F9.4°C 47.1°F8.4°C 93% 6.0 mph S9.7 kmh S 18.0 mph29.0 kmh 29.69 in1005.4 mb 0.08 in2.0 mm 0.04 in1.0 mm 0.17 in4.3 mm
03:15 PM 49.2°F9.6°C 47.3°F8.5°C 93% 7.0 mph S11.3 kmh S 16.0 mph25.7 kmh 29.71 in1006.1 mb 0.07 in1.8 mm 0.00 in0.0 mm 0.15 in3.8 mm
03:00 PM 49.3°F9.6°C 47.1°F8.4°C 92% 8.0 mph S12.9 kmh S 18.0 mph29.0 kmh 29.70 in1005.8 mb 0.08 in2.0 mm 0.03 in0.8 mm 0.13 in3.3 mm
02:45 PM 49.4°F9.7°C 47.2°F8.4°C 92% 8.0 mph S12.9 kmh S 18.0 mph29.0 kmh 29.71 in1006.1 mb 0.06 in1.5 mm 0.00 in0.0 mm 0.10 in2.5 mm
02:30 PM 49.4°F9.7°C 47.2°F8.4°C 92% 7.0 mph S11.3 kmh S 15.0 mph24.1 kmh 29.73 in1006.8 mb 0.06 in1.5 mm 0.00 in0.0 mm 0.09 in2.3 mm
02:15 PM 49.4°F9.7°C 47.2°F8.4°C 92% 7.0 mph SSW11.3 kmh SSW 15.0 mph24.1 kmh 29.73 in1006.8 mb 0.06 in1.5 mm 0.16 in4.1 mm 0.08 in2.0 mm
02:00 PM 49.6°F9.8°C 47.4°F8.6°C 92% 7.0 mph S11.3 kmh S 19.0 mph30.6 kmh 29.73 in1006.8 mb 0.02 in0.5 mm 0.00 in0.0 mm 0.05 in1.3 mm
01:45 PM 49.7°F9.8°C 47.2°F8.4°C 91% 8.0 mph S12.9 kmh S 16.0 mph25.7 kmh 29.74 in1007.1 mb 0.02 in0.5 mm 0.00 in0.0 mm 0.04 in1.0 mm
01:30 PM 49.7°F9.8°C 47.2°F8.4°C 91% 8.0 mph S12.9 kmh S 17.0 mph27.4 kmh 29.74 in1007.1 mb 0.02 in0.5 mm 0.04 in1.0 mm 0.03 in0.8 mm
01:15 PM 49.7°F9.8°C 47.2°F8.4°C 91% 8.0 mph S12.9 kmh S 19.0 mph30.6 kmh 29.75 in1007.5 mb 0.01 in0.3 mm 0.00 in0.0 mm 0.02 in0.5 mm
01:00 PM 49.6°F9.8°C 47.1°F8.4°C 91% 6.0 mph S9.7 kmh S 16.0 mph25.7 kmh 29.76 in1007.8 mb 0.01 in0.3 mm 0.01 in0.3 mm 0.02 in0.5 mm
12:45 PM 49.5°F9.7°C 47.0°F8.3°C 91% 6.0 mph S9.7 kmh S 20.0 mph32.2 kmh 29.77 in1008.1 mb 0.00 in0.0 mm 0.00 in0.0 mm 0.02 in0.5 mm
12:30 PM 49.5°F9.7°C 47.0°F8.3°C 91% 7.0 mph S11.3 kmh S 18.0 mph29.0 kmh 29.77 in1008.1 mb 0.00 in0.0 mm 0.00 in0.0 mm 0.02 in0.5 mm
12:15 PM 49.5°F9.7°C 47.0°F8.3°C 91% 6.0 mph S9.7 kmh S 18.0 mph29.0 kmh 29.78 in1008.5 mb 0.00 in0.0 mm 0.00 in0.0 mm 0.02 in0.5 mm
12:00 PM 49.5°F9.7°C 47.0°F8.3°C 91% 6.0 mph S9.7 kmh S 12.0 mph19.3 kmh 29.78 in1008.5 mb 0.00 in0.0 mm 0.00 in0.0 mm 0.02 in0.5 mm
11:45 AM 49.2°F9.6°C 46.4°F8.0°C 90% 5.0 mph S8.0 kmh S 17.0 mph27.4 kmh 29.79 in1008.8 mb 0.00 in0.0 mm 0.00 in0.0 mm 0.02 in0.5 mm
11:30 AM 49.4°F9.7°C 46.6°F8.1°C 90% 7.0 mph S11.3 kmh S 16.0 mph25.7 kmh 29.80 in1009.1 mb 0.00 in0.0 mm 0.00 in0.0 mm 0.02 in0.5 mm
11:15 AM 49.7°F9.8°C 46.6°F8.1°C 89% 7.0 mph S11.3 kmh S 15.0 mph24.1 kmh 29.80 in1009.1 mb 0.00 in0.0 mm 0.00 in0.0 mm 0.02 in0.5 mm
11:00 AM 49.9°F9.9°C 47.1°F8.4°C 90% 6.0 mph S9.7 kmh S 13.0 mph20.9 kmh 29.80 in1009.1 mb 0.00 in0.0 mm 0.00 in0.0 mm 0.02 in0.5 mm
10:45 AM 49.6°F9.8°C 46.8°F8.2°C 90% 6.0 mph S9.7 kmh S 14.0 mph22.5 kmh 29.81 in1009.5 mb 0.00 in0.0 mm 0.00 in0.0 mm 0.02 in0.5 mm
10:30 AM 49.3°F9.6°C 46.5°F8.1°C 90% 6.0 mph S9.7 kmh S 16.0 mph25.7 kmh 29.81 in1009.5 mb 0.00 in0.0 mm 0.00 in0.0 mm 0.02 in0.5 mm
10:15 AM 49.0°F9.4°C 46.8°F8.2°C 92% 4.0 mph S6.4 kmh S 13.0 mph20.9 kmh 29.81 in1009.5 mb 0.00 in0.0 mm 0.00 in0.0 mm 0.02 in0.5 mm
10:00 AM 48.4°F9.1°C 46.2°F7.9°C 92% 4.0 mph S6.4 kmh S 10.0 mph16.1 kmh 29.82 in1009.8 mb 0.00 in0.0 mm 0.00 in0.0 mm 0.02 in0.5 mm
09:45 AM 47.7°F8.7°C 45.5°F7.5°C 92% 2.0 mph S3.2 kmh S 8.0 mph12.9 kmh 29.82 in1009.8 mb 0.00 in0.0 mm 0.00 in0.0 mm 0.02 in0.5 mm
09:30 AM 47.5°F8.6°C 45.3°F7.4°C 92% 2.0 mph S3.2 kmh S 7.0 mph11.3 kmh 29.83 in1010.2 mb 0.00 in0.0 mm 0.00 in0.0 mm 0.02 in0.5 mm
09:15 AM 47.8°F8.8°C 45.9°F7.7°C 93% 2.0 mph S3.2 kmh S 6.0 mph9.7 kmh 29.83 in1010.2 mb 0.00 in0.0 mm 0.00 in0.0 mm 0.02 in0.5 mm
09:00 AM 47.6°F8.7°C 45.7°F7.6°C 93% 3.0 mph SSW4.8 kmh SSW 8.0 mph12.9 kmh 29.83 in1010.2 mb 0.01 in0.3 mm 0.00 in0.0 mm 0.02 in0.5 mm
08:45 AM 47.6°F8.7°C 45.7°F7.6°C 93% 2.0 mph S3.2 kmh S 4.0 mph6.4 kmh 29.82 in1009.8 mb 0.01 in0.3 mm 0.00 in0.0 mm 0.02 in0.5 mm
08:30 AM 47.5°F8.6°C 45.6°F7.6°C 93% 3.0 mph S4.8 kmh S 9.0 mph14.5 kmh 29.82 in1009.8 mb 0.01 in0.3 mm 0.00 in0.0 mm 0.02 in0.5 mm
08:15 AM 47.6°F8.7°C 45.7°F7.6°C 93% 2.0 mph S3.2 kmh S 9.0 mph14.5 kmh 29.83 in1010.2 mb 0.01 in0.3 mm 0.04 in1.0 mm 0.02 in0.5 mm
08:00 AM 47.6°F8.7°C 45.4°F7.4°C 92% 2.0 mph SSW3.2 kmh SSW 5.0 mph8.0 kmh 29.83 in1010.2 mb 0.00 in0.0 mm 0.00 in0.0 mm 0.01 in0.3 mm
07:45 AM 47.5°F8.6°C 45.3°F7.4°C 92% 3.0 mph S4.8 kmh S 11.0 mph17.7 kmh 29.83 in1010.2 mb 0.00 in0.0 mm 0.00 in0.0 mm 0.01 in0.3 mm
07:30 AM 47.6°F8.7°C 45.4°F7.4°C 92% 4.0 mph S6.4 kmh S 11.0 mph17.7 kmh 29.83 in1010.2 mb 0.00 in0.0 mm 0.00 in0.0 mm 0.01 in0.3 mm
07:15 AM 47.6°F8.7°C 45.4°F7.4°C 92% 3.0 mph S4.8 kmh S 12.0 mph19.3 kmh 29.83 in1010.2 mb 0.00 in0.0 mm 0.00 in0.0 mm 0.01 in0.3 mm
07:00 AM 47.4°F8.6°C 45.2°F7.3°C 92% 4.0 mph S6.4 kmh S 11.0 mph17.7 kmh 29.83 in1010.2 mb 0.01 in0.3 mm 0.00 in0.0 mm 0.01 in0.3 mm
06:45 AM 47.4°F8.6°C 45.2°F7.3°C 92% 4.0 mph S6.4 kmh S 13.0 mph20.9 kmh 29.83 in1010.2 mb 0.01 in0.3 mm 0.00 in0.0 mm 0.01 in0.3 mm
06:30 AM 47.4°F8.6°C 45.2°F7.3°C 92% 3.0 mph S4.8 kmh S 10.0 mph16.1 kmh 29.83 in1010.2 mb 0.01 in0.3 mm 0.00 in0.0 mm 0.01 in0.3 mm
06:15 AM 47.3°F8.5°C 45.1°F7.3°C 92% 2.0 mph S3.2 kmh S 6.0 mph9.7 kmh 29.83 in1010.2 mb 0.01 in0.3 mm 0.04 in1.0 mm 0.01 in0.3 mm
06:00 AM 47.2°F8.4°C 45.0°F7.2°C 92% 3.0 mph S4.8 kmh S 10.0 mph16.1 kmh 29.84 in1010.5 mb 0.00 in0.0 mm 0.00 in0.0 mm 0.00 in0.0 mm
05:45 AM 47.1°F8.4°C 44.9°F7.2°C 92% 3.0 mph S4.8 kmh S 9.0 mph14.5 kmh 29.84 in1010.5 mb 0.00 in0.0 mm 0.00 in0.0 mm 0.00 in0.0 mm
05:30 AM 47.0°F8.3°C 44.5°F6.9°C 91% 3.0 mph S4.8 kmh S 10.0 mph16.1 kmh 29.84 in1010.5 mb 0.00 in0.0 mm 0.00 in0.0 mm 0.00 in0.0 mm
05:15 AM 46.8°F8.2°C 44.0°F6.7°C 90% 3.0 mph S4.8 kmh S 7.0 mph11.3 kmh 29.85 in1010.8 mb 0.00 in0.0 mm 0.00 in0.0 mm 0.00 in0.0 mm
05:00 AM 46.7°F8.2°C 43.9°F6.6°C 90% 3.0 mph S4.8 kmh S 9.0 mph14.5 kmh 29.85 in1010.8 mb 0.00 in0.0 mm 0.00 in0.0 mm 0.00 in0.0 mm
04:45 AM 46.4°F8.0°C 43.6°F6.4°C 90% 3.0 mph S4.8 kmh S 8.0 mph12.9 kmh 29.85 in1010.8 mb 0.00 in0.0 mm 0.00 in0.0 mm 0.00 in0.0 mm
04:30 AM 46.6°F8.1°C 43.8°F6.6°C 90% 2.0 mph SSE3.2 kmh SSE 9.0 mph14.5 kmh 29.85 in1010.8 mb 0.00 in0.0 mm 0.00 in0.0 mm 0.00 in0.0 mm
04:15 AM 46.8°F8.2°C 44.0°F6.7°C 90% 4.0 mph S6.4 kmh S 8.0 mph12.9 kmh 29.85 in1010.8 mb 0.00 in0.0 mm 0.00 in0.0 mm 0.00 in0.0 mm
04:00 AM 46.7°F8.2°C 43.9°F6.6°C 90% 3.0 mph S4.8 kmh S 9.0 mph14.5 kmh 29.86 in1011.2 mb 0.00 in0.0 mm 0.00 in0.0 mm 0.00 in0.0 mm
03:45 AM 46.8°F8.2°C 44.0°F6.7°C 90% 3.0 mph SSE4.8 kmh SSE 9.0 mph14.5 kmh 29.85 in1010.8 mb 0.00 in0.0 mm 0.00 in0.0 mm 0.00 in0.0 mm
03:30 AM 46.8°F8.2°C 44.0°F6.7°C 90% 4.0 mph S6.4 kmh S 9.0 mph14.5 kmh 29.86 in1011.2 mb 0.00 in0.0 mm 0.00 in0.0 mm 0.00 in0.0 mm
03:15 AM 46.9°F8.3°C 44.1°F6.7°C 90% 3.0 mph S4.8 kmh S 8.0 mph12.9 kmh 29.86 in1011.2 mb 0.00 in0.0 mm 0.00 in0.0 mm 0.00 in0.0 mm
03:00 AM 47.0°F8.3°C 44.2°F6.8°C 90% 3.0 mph S4.8 kmh S 8.0 mph12.9 kmh 29.87 in1011.5 mb 0.00 in0.0 mm 0.00 in0.0 mm 0.00 in0.0 mm
02:45 AM 47.1°F8.4°C 44.3°F6.8°C 90% 3.0 mph S4.8 kmh S 9.0 mph14.5 kmh 29.87 in1011.5 mb 0.00 in0.0 mm 0.00 in0.0 mm 0.00 in0.0 mm
02:30 AM 47.0°F8.3°C 44.2°F6.8°C 90% 2.0 mph S3.2 kmh S 7.0 mph11.3 kmh 29.87 in1011.5 mb 0.00 in0.0 mm 0.00 in0.0 mm 0.00 in0.0 mm
02:15 AM 47.1°F8.4°C 44.3°F6.8°C 90% 3.0 mph S4.8 kmh S 9.0 mph14.5 kmh 29.88 in1011.9 mb 0.00 in0.0 mm 0.00 in0.0 mm 0.00 in0.0 mm
02:00 AM 47.0°F8.3°C 44.2°F6.8°C 90% 3.0 mph S4.8 kmh S 11.0 mph17.7 kmh 29.88 in1011.9 mb 0.00 in0.0 mm 0.00 in0.0 mm 0.00 in0.0 mm
01:45 AM 46.9°F8.3°C 44.1°F6.7°C 90% 3.0 mph S4.8 kmh S 8.0 mph12.9 kmh 29.88 in1011.9 mb 0.00 in0.0 mm 0.00 in0.0 mm 0.00 in0.0 mm
01:30 AM 46.9°F8.3°C 44.1°F6.7°C 90% 2.0 mph S3.2 kmh S 6.0 mph9.7 kmh 29.88 in1011.9 mb 0.00 in0.0 mm 0.00 in0.0 mm 0.00 in0.0 mm
01:15 AM 46.6°F8.1°C 44.1°F6.7°C 91% 2.0 mph S3.2 kmh S 8.0 mph12.9 kmh 29.89 in1012.2 mb 0.00 in0.0 mm 0.00 in0.0 mm 0.00 in0.0 mm
01:00 AM 46.3°F7.9°C 43.5°F6.4°C 90% 2.0 mph S3.2 kmh S 6.0 mph9.7 kmh 29.89 in1012.2 mb 0.00 in0.0 mm 0.00 in0.0 mm 0.00 in0.0 mm
12:45 AM 46.2°F7.9°C 43.4°F6.3°C 90% 1.0 mph SSE1.6 kmh SSE 6.0 mph9.7 kmh 29.90 in1012.5 mb 0.00 in0.0 mm 0.00 in0.0 mm 0.00 in0.0 mm
12:30 AM 46.1°F7.8°C 43.3°F6.3°C 90% Calm Calm 6.0 mph9.7 kmh 29.90 in1012.5 mb 0.00 in0.0 mm 0.00 in0.0 mm 0.00 in0.0 mm
12:15 AM 46.2°F7.9°C 43.7°F6.5°C 91% Calm Calm 2.0 mph3.2 kmh 29.90 in1012.5 mb 0.00 in0.0 mm 0.00 in0.0 mm 0.00 in0.0 mm
12:00 AM 46.3°F7.9°C 43.8°F6.6°C 91% Calm Calm 3.0 mph4.8 kmh 29.91 in1012.9 mb 0.00 in0.0 mm 0.00 in0.0 mm 0.00 in0.0 mm